Stations météo

Publicité
Fichtelberg, Allemagne (10578): Température de l'air & dewpoint: 12.09.2018 17:00:00 - 18.09.2018 17:00:00 (CEST)Fichtelberg, Allemagne (10578): Température de l'air 5cm & Température de l'air -5cm: 12.09.2018 17:00:00 - 18.09.2018 17:00:00 (CEST)Fichtelberg, Allemagne (10578): Température de l'air -20cm & Température de l'air -100cm: 12.09.2018 17:00:00 - 18.09.2018 17:00:00 (CEST)Fichtelberg, Allemagne (10578): Vitesse du vent & gusts: 12.09.2018 17:00:00 - 18.09.2018 17:00:00 (CEST)Fichtelberg, Allemagne (10578): Direction du vent: 12.09.2018 17:00:00 - 18.09.2018 17:00:00 (CEST)Fichtelberg, Allemagne (10578): visibility: 12.09.2018 17:00:00 - 18.09.2018 17:00:00 (CEST)Fichtelberg, Allemagne (10578): Ensoleillement: 12.09.2018 17:00:00 - 18.09.2018 17:00:00 (CEST)Fichtelberg, Allemagne (10578): Quantités de précipitations: 12.09.2018 17:00:00 - 18.09.2018 17:00:00 (CEST)
Date & Time tt [°C] td [°C] tt 5cm [°C] tt -5cm [°C] tt -20cm [°C] tt -100cm [°C] ff [km/h] ff [knt] fx [km/h] fx [knt] dd vv [km] sd [min] rr [mm]
18.09.2018 17:00:00 21,0 8,9 23,3 25,1 15,9 12,6 18 10 44 24 S 70 60 -
18.09.2018 16:00:00 21,6 6,6 24,8 25,5 15,3 12,6 25 13 35 19 SSW 70 60 -
18.09.2018 15:00:00 21,8 6,5 26,4 24,9 14,7 12,6 18 10 34 18 S 60 60 -
18.09.2018 14:00:00 20,9 7,3 26,1 23,7 14,1 12,6 18 10 32 18 S 50 60 -
18.09.2018 13:00:00 20,3 9,4 25,1 21,5 13,7 12,6 15 8 29 15 WSW 50 60 -
18.09.2018 12:00:00 18,8 10,9 23,9 18,8 13,4 12,6 15 8 29 16 SW 50 60 -
18.09.2018 11:00:00 17,6 11,4 21,3 15,8 13,3 12,6 18 10 29 15 SSW 50 60 -
18.09.2018 10:00:00 16,2 11,5 18,6 13,2 13,4 12,6 16 9 24 13 SW 50 60 -
18.09.2018 09:00:00 14,9 10,0 16,2 11,2 13,6 12,6 16 9 21 11 SSW 50 60 0,0
18.09.2018 08:00:00 13,5 10,2 11,0 10,5 13,8 12,6 17 9 19 11 SSW 50 23 -
18.09.2018 07:00:00 12,7 10,5 9,5 10,5 14,0 12,6 15 8 18 10 S 50 0 -
18.09.2018 06:00:00 12,7 10,3 9,6 10,8 14,2 12,6 18 10 22 12 S 50 0 -
18.09.2018 05:00:00 13,0 10,4 10,5 11,1 14,4 12,6 20 11 24 13 S 31 0 -
18.09.2018 04:00:00 13,1 9,8 10,3 11,4 14,7 12,6 20 11 25 13 S 36 0 -
18.09.2018 03:00:00 13,2 9,1 10,1 11,8 14,9 12,7 20 11 27 15 S 40 0 -
18.09.2018 02:00:00 13,5 8,8 11,1 12,2 15,2 12,7 21 12 28 15 S 45 0 -
18.09.2018 01:00:00 13,6 8,3 11,1 12,6 15,4 12,7 20 11 29 15 SSE 53 0 -
18.09.2018 00:00:00 13,5 7,6 11,3 13,2 15,7 12,7 16 9 27 14 SE 61 0 -
17.09.2018 23:00:00 13,8 7,7 11,0 13,9 15,9 12,7 17 9 21 12 SSE 49 0 -
17.09.2018 22:00:00 13,5 7,6 10,6 14,8 16,1 12,7 12 6 13 7 S 55 0 -
17.09.2018 21:00:00 14,4 7,1 10,6 16,2 16,1 12,7 9 5 13 7 SE 57 0 -
17.09.2018 20:00:00 14,8 7,4 11,9 17,9 16,0 12,7 9 5 15 8 ESE 61 0 -
17.09.2018 19:00:00 16,0 7,8 14,0 20,2 15,8 12,7 12 7 18 10 S 67 46 -
17.09.2018 18:00:00 18,0 7,4 18,4 22,3 15,3 12,7 13 7 22 12 S 75 56 -
17.09.2018 17:00:00 19,2 5,7 21,7 23,4 14,8 12,7 14 8 28 15 S 65 59 -
17.09.2018 16:00:00 19,2 7,2 22,9 23,3 14,2 12,7 15 8 27 15 S 75 60 -
17.09.2018 15:00:00 19,0 7,5 22,2 22,8 13,6 12,7 11 6 27 14 WSW 55 60 -
17.09.2018 14:00:00 18,6 7,7 21,7 22,0 13,0 12,7 19 10 33 18 WSW 60 60 -
17.09.2018 13:00:00 18,7 8,0 22,8 20,1 12,6 12,7 17 9 37 20 WSW 60 60 -
17.09.2018 12:00:00 17,7 7,1 22,1 17,4 12,3 12,7 16 9 26 14 SW 60 60 -
17.09.2018 11:00:00 16,6 6,5 20,6 14,4 12,3 12,7 11 6 24 13 SSW 65 60 -
17.09.2018 10:00:00 15,3 6,7 17,3 11,4 12,4 12,7 14 8 19 11 W 60 60 -
17.09.2018 09:00:00 13,2 6,6 14,4 9,2 12,6 12,7 16 9 21 11 WSW 60 60 0,0
17.09.2018 08:00:00 11,0 4,9 8,8 8,5 12,8 12,7 19 10 23 12 WSW 65 53 -
17.09.2018 07:00:00 10,0 4,9 7,3 8,6 13,0 12,7 21 12 24 13 WSW 65 0 -
17.09.2018 06:00:00 10,3 4,6 7,5 9,0 13,2 12,7 23 12 26 14 WSW 65 0 -
17.09.2018 05:00:00 10,4 4,4 7,4 9,5 13,5 12,7 21 12 25 14 WSW 67 0 -
17.09.2018 04:00:00 10,9 6,3 8,4 9,9 13,7 12,7 21 12 30 16 SW 53 0 -
17.09.2018 03:00:00 11,3 6,4 9,1 10,3 14,0 12,7 26 14 35 19 SW 49 0 -
17.09.2018 02:00:00 11,2 6,2 9,4 10,6 14,2 12,7 31 17 36 19 SSW 47 0 -
17.09.2018 01:00:00 11,4 4,7 9,1 11,1 14,5 12,7 25 13 27 15 SSW 54 0 -
17.09.2018 00:00:00 11,5 4,0 9,2 11,7 14,7 12,7 24 13 31 17 S 61 0 -
16.09.2018 23:00:00 11,5 4,0 9,4 12,4 15,0 12,8 27 15 30 16 S 72 0 -
16.09.2018 22:00:00 11,6 4,3 9,2 13,4 15,2 12,8 20 11 22 12 SSE 70 0 -
16.09.2018 21:00:00 11,6 4,5 9,2 14,6 15,2 12,8 18 10 22 12 SSE 52 0 -
16.09.2018 20:00:00 11,7 4,5 9,2 16,4 15,1 12,8 17 9 19 11 SSE 65 0 -
16.09.2018 19:00:00 12,7 4,9 11,1 18,9 14,8 12,8 13 7 16 9 SE 64 60 -
16.09.2018 18:00:00 14,5 4,8 15,2 21,3 14,4 12,8 12 7 22 12 SE 67 60 -
16.09.2018 17:00:00 15,4 4,5 17,5 22,4 13,8 12,8 16 9 27 14 SE 80 60 -
16.09.2018 16:00:00 15,4 4,2 18,5 22,4 13,2 12,8 18 10 30 16 SE 60 60 -
16.09.2018 15:00:00 15,5 5,7 19,8 21,6 12,6 12,8 19 10 34 18 ESE 60 60 -
16.09.2018 14:00:00 14,9 5,6 19,4 20,1 12,1 12,8 19 10 34 18 ESE 55 60 -
16.09.2018 13:00:00 13,8 5,0 18,8 17,6 11,7 12,8 18 10 32 17 SSE 55 60 -
16.09.2018 12:00:00 12,6 4,5 16,1 14,9 11,5 12,8 22 12 36 19 ESE 65 60 -
16.09.2018 11:00:00 12,1 4,2 15,4 12,2 11,5 12,8 23 13 37 20 ESE 65 60 -
16.09.2018 10:00:00 11,0 3,8 13,3 9,8 11,6 12,8 21 12 33 18 ESE 60 60 -
16.09.2018 09:00:00 9,7 5,4 10,5 8,1 11,8 12,8 16 9 22 12 E 60 60 0,0
16.09.2018 08:00:00 8,6 4,9 7,2 7,2 12,0 12,8 15 8 19 10 ESE 55 38 -
16.09.2018 07:00:00 6,9 4,2 4,5 7,3 12,2 12,8 12 7 13 7 ESE 60 0 -
16.09.2018 06:00:00 7,3 4,4 3,9 7,9 12,4 12,8 9 5 10 5 ESE 60 0 -
16.09.2018 05:00:00 7,6 4,4 3,4 8,1 12,7 12,8 6 3 8 5 ESE 66 0 -
16.09.2018 04:00:00 8,2 4,5 4,7 8,6 12,9 12,8 4 2 8 5 NNE 65 0 -
16.09.2018 03:00:00 7,5 4,4 6,3 8,6 13,2 12,8 9 5 16 9 NW 64 0 -
16.09.2018 02:00:00 7,3 4,2 5,3 8,7 13,5 12,8 14 8 16 9 NW 58 0 -
16.09.2018 01:00:00 7,0 4,0 4,4 9,0 13,8 12,8 16 8 20 11 WNW 71 0 -
16.09.2018 00:00:00 7,3 3,7 4,8 9,5 14,1 12,8 17 9 20 11 NW 73 0 -
15.09.2018 23:00:00 7,1 3,0 4,9 10,2 14,4 12,9 19 10 25 14 WNW 58 0 -
15.09.2018 22:00:00 7,4 2,8 5,8 11,2 14,6 12,9 19 11 22 12 W 75 0 -
15.09.2018 21:00:00 7,5 2,8 4,8 12,4 14,8 12,9 15 8 19 11 WNW 75 0 -
15.09.2018 20:00:00 8,2 2,9 6,5 14,1 14,8 12,9 18 10 21 11 NW 75 1 -
15.09.2018 19:00:00 9,7 3,7 8,4 16,3 14,6 12,9 16 8 24 13 WNW 75 36 -
15.09.2018 18:00:00 11,3 3,9 11,6 18,5 14,4 12,9 19 11 32 17 WNW 69 46 -
15.09.2018 17:00:00 12,7 4,1 14,5 19,3 14,0 12,9 21 11 38 21 W 65 48 -
15.09.2018 16:00:00 12,4 4,1 15,8 19,7 13,6 12,9 23 12 35 19 WNW 60 46 -
15.09.2018 15:00:00 12,2 4,8 15,0 19,1 13,2 12,9 19 10 41 22 WNW 65 45 -
15.09.2018 14:00:00 11,6 4,3 14,9 18,3 12,8 12,9 29 16 47 25 W 55 52 -
15.09.2018 13:00:00 10,7 4,1 13,8 16,9 12,6 12,9 36 20 49 26 W 60 56 -
15.09.2018 12:00:00 10,8 5,8 13,0 15,2 12,4 12,9 30 16 42 23 W 35 60 -
15.09.2018 11:00:00 9,3 5,9 11,2 13,3 12,3 12,9 23 12 34 18 WNW 30 58 -
15.09.2018 10:00:00 8,3 6,9 10,4 11,5 12,4 12,9 25 13 33 18 WNW 8 41 -
15.09.2018 09:00:00 7,9 7,7 8,5 10,4 12,5 12,9 21 11 39 21 WNW 0,1 1 0,8
15.09.2018 08:00:00 8,1 7,9 8,3 9,9 12,6 12,9 24 13 30 16 WNW 0,1 0 -
15.09.2018 07:00:00 7,6 7,4 7,6 9,7 12,7 12,9 27 15 32 18 WNW 0,2 0 -
15.09.2018 06:00:00 7,7 7,2 7,4 10,0 12,8 12,9 26 14 33 18 W 20 0 -
15.09.2018 05:00:00 7,9 7,4 7,7 10,2 12,9 12,9 23 12 31 17 W 18 0 -
15.09.2018 04:00:00 8,7 8,4 8,5 10,5 13,0 12,9 24 13 29 16 W 0,7 0 -
15.09.2018 03:00:00 9,2 8,9 9,0 10,8 13,1 12,9 26 14 34 18 W 0,3 0 -
15.09.2018 02:00:00 9,6 9,4 9,4 11,0 13,3 12,9 28 15 34 19 W 0,4 0 -
15.09.2018 01:00:00 9,9 9,7 9,8 10,9 13,4 12,9 27 15 32 17 WSW 0,9 0 -
15.09.2018 00:00:00 10,0 9,8 9,8 10,8 13,6 12,9 24 13 33 18 SSW 0,2 0 -
14.09.2018 23:00:00 9,8 9,6 9,4 10,7 13,7 12,9 27 14 32 17 SSW 0,3 0 -
14.09.2018 22:00:00 9,5 9,1 8,9 10,9 13,9 12,9 22 12 25 14 SW 10 0 -
14.09.2018 21:00:00 9,2 8,6 8,1 11,4 14,0 12,9 16 9 21 12 SW 29 0 -
14.09.2018 20:00:00 9,0 8,5 7,8 12,5 14,1 12,9 17 9 20 11 WSW 24 18 -
14.09.2018 19:00:00 10,0 9,6 10,1 13,6 14,1 12,9 10 5 15 8 W 40 9 -
14.09.2018 18:00:00 10,1 9,8 10,5 13,7 14,1 12,9 10 6 16 9 W 30 0 -
14.09.2018 17:00:00 9,9 9,7 10,1 13,9 14,0 12,9 9 5 13 7 W 0,1 0 -
14.09.2018 16:00:00 10,2 9,9 10,9 14,3 14,0 12,9 6 3 10 6 NW 0,1 0 -
14.09.2018 15:00:00 9,9 9,6 10,8 14,2 13,9 12,9 4 2 7 4 WSW 0,1 0 -
14.09.2018 14:00:00 9,8 9,7 10,7 14,3 13,8 12,9 4 2 9 5 NNW 0,1 0 -
14.09.2018 13:00:00 9,8 9,7 11,0 14,2 13,8 12,9 6 3 11 6 NE 0,1 0 -
14.09.2018 12:00:00 9,5 9,3 11,2 13,5 13,8 12,9 9 5 13 7 NNE 0,1 0 -
14.09.2018 11:00:00 9,3 9,1 10,4 12,5 13,9 12,9 6 3 14 7 NNE 0,1 0 -
14.09.2018 10:00:00 8,9 8,8 9,5 12,0 14,0 12,9 9 5 17 9 N 0,1 0 -
14.09.2018 09:00:00 8,7 8,5 9,0 11,7 14,2 12,9 14 8 18 10 NNW 0,1 0 5,2
14.09.2018 08:00:00 8,6 8,4 8,8 11,7 14,3 12,9 12 7 17 9 N 0,1 0 -
14.09.2018 07:00:00 8,6 8,4 8,8 11,8 14,5 12,9 14 7 18 10 N 0,1 0 -
14.09.2018 06:00:00 8,7 8,5 8,9 11,9 14,6 12,9 14 7 17 9 N 0,1 0 -
14.09.2018 05:00:00 8,7 8,5 8,9 12,1 14,8 12,9 12 7 16 9 N 0,1 0 -
14.09.2018 04:00:00 8,9 8,7 9,1 12,3 14,9 12,9 11 6 16 9 NW 0,1 0 -
14.09.2018 03:00:00 9,1 8,9 9,2 12,6 15,1 12,9 14 8 18 10 NNW 0,1 0 -
14.09.2018 02:00:00 9,4 9,2 9,6 13,0 15,3 12,8 13 7 16 9 NW 0,1 0 -
14.09.2018 01:00:00 9,8 9,6 9,9 13,3 15,4 12,8 11 6 14 8 NW 0,1 0 -
14.09.2018 00:00:00 9,9 9,7 10,1 13,6 15,6 12,8 10 5 18 10 NW 0,1 0 -
13.09.2018 23:00:00 10,0 9,8 10,2 14,0 15,7 12,8 10 5 15 8 NW 0,1 0 -
13.09.2018 22:00:00 10,2 10,0 10,4 14,4 15,9 12,8 9 5 18 10 NW - 0 -
13.09.2018 21:00:00 10,6 10,3 10,8 15,0 16,0 12,8 14 8 18 10 WNW 0,1 0 -
13.09.2018 20:00:00 10,9 10,6 11,0 15,6 16,0 12,8 10 5 15 8 WNW - 0 -
13.09.2018 19:00:00 11,2 10,9 11,5 16,4 16,0 12,8 9 5 15 8 WNW - 0 -
13.09.2018 18:00:00 11,7 11,4 12,1 17,3 15,9 12,8 11 6 16 8 WNW - 0 -
13.09.2018 17:00:00 13,1 12,7 13,9 18,3 15,7 12,8 8 4 25 13 WNW 0,1 0 -
13.09.2018 16:00:00 15,2 12,9 16,1 19,1 15,5 12,8 15 8 21 11 SSW 30 7 -
13.09.2018 15:00:00 15,5 13,7 17,5 18,0 15,3 12,8 10 6 27 15 SW 23 10 -
13.09.2018 14:00:00 13,7 12,6 13,8 17,7 15,1 12,8 19 11 30 16 S 10 0 -
13.09.2018 13:00:00 16,9 12,6 16,8 18,7 15,0 12,8 18 10 34 19 W 50 28 -
13.09.2018 12:00:00 16,0 14,1 18,7 15,5 15,0 12,8 24 13 43 23 WSW 45 22 -
13.09.2018 11:00:00 12,4 11,0 12,2 14,1 15,1 12,8 35 19 54 29 WSW 20 0 -
13.09.2018 10:00:00 14,5 9,7 14,9 13,9 15,2 12,8 27 15 34 19 SSW 50 0 -
13.09.2018 09:00:00 14,3 9,6 14,4 13,2 15,3 12,8 29 16 36 19 SSW 50 0 0,0
13.09.2018 08:00:00 12,6 8,8 12,3 12,9 15,5 12,8 18 10 22 12 S 25 0 -
13.09.2018 07:00:00 11,5 9,2 10,7 12,7 15,8 12,8 15 8 31 17 S 20 0 -
13.09.2018 06:00:00 11,8 9,1 10,5 12,8 16,0 12,8 16 8 18 10 SE 28 0 -
13.09.2018 05:00:00 12,2 8,9 10,4 13,2 16,2 12,8 14 8 18 10 SE 39 0 -
13.09.2018 04:00:00 11,2 9,5 9,4 13,8 16,5 12,8 18 10 19 10 E 29 0 -
13.09.2018 03:00:00 10,7 10,5 10,5 14,2 16,7 12,8 10 5 15 8 ENE - 0 -
13.09.2018 02:00:00 11,0 10,8 10,8 14,7 16,9 12,8 10 6 18 10 NNE - 0 -
13.09.2018 01:00:00 11,4 11,2 11,4 15,0 17,2 12,7 17 9 25 14 N 0,1 0 -
13.09.2018 00:00:00 11,6 10,4 10,6 15,4 17,4 12,7 21 11 30 16 NNW 17 0 -
12.09.2018 23:00:00 14,1 7,9 12,7 16,2 17,6 12,7 22 12 33 18 NNW 49 0 -
12.09.2018 22:00:00 16,0 7,2 13,7 17,1 17,8 12,7 20 11 24 13 W 70 0 -
12.09.2018 21:00:00 16,2 7,2 13,7 18,3 17,8 12,7 19 11 24 13 W 58 0 -
12.09.2018 20:00:00 17,0 7,4 14,5 20,0 17,7 12,7 21 11 33 18 W 69 25 -
12.09.2018 19:00:00 19,3 7,4 17,5 22,3 17,4 12,7 26 14 41 22 W 73 60 -
12.09.2018 18:00:00 21,1 7,7 21,6 24,3 16,9 12,7 31 17 42 23 WSW 62 60 -
12.09.2018 17:00:00 22,5 6,6 24,0 25,2 16,4 12,7 30 16 44 24 WSW 60 60 -

tt = Température de l'air
td = dewpoint
tt 5cm = Température de l'air 5cm
tt -5cm = Température de l'air -5cm
tt -20cm = Température de l'air -20cm
tt -100cm = Température de l'air -100cm
ff = Vitesse du vent
fx = gusts
dd = Direction du vent
vv = visibility
sd = Ensoleillement
rr = Quantités de précipitations

stations d'obs. à proximité